Time;durP1;ratioP1;P1;durP2;ratioP2;P2;SDS_P1;SDS_P2;PMS_P1;PMS_P2;Temp;Humidity;BMP_temperature;BMP_pressure;BME280_temperature;BME280_humidity;BME280_pressure;Samples;Min_cycle;Max_cycle;Signal;HPM_P1;HPM_P2
2022/08/13 00:00:24;;;;;;;3.10;1.70;;;;;;;;;;5029954;28;20082;-68
2022/08/13 00:02:51;;;;;;;3.90;1.80;;;;;;;;;;5022452;28;20099;-69
2022/08/13 00:05:24;;;;;;;3.83;1.63;;;;;;;;;;5035260;28;20032;-68
2022/08/13 00:07:50;;;;;;;3.88;1.67;;;;;;;;;;5034927;28;20497;-68
2022/08/13 00:10:33;;;;;;;3.35;2.13;;;;;;;;;;5029523;28;20033;-68
2022/08/13 00:13:03;;;;;;;2.85;1.90;;;;;;;;;;5030661;28;20099;-68
2022/08/13 00:15:35;;;;;;;3.60;2.00;;;;;;;;;;5041269;28;20654;-68
2022/08/13 00:18:10;;;;;;;3.67;2.00;;;;;;;;;;5047056;28;20518;-68
2022/08/13 00:20:54;;;;;;;2.72;1.70;;;;;;;;;;5029502;28;20400;-68
2022/08/13 00:23:20;;;;;;;2.35;1.85;;;;;;;;;;5026049;28;20036;-69
2022/08/13 00:25:49;;;;;;;2.28;1.77;;;;;;;;;;5040703;28;20570;-69
2022/08/13 00:28:18;;;;;;;4.25;1.88;;;;;;;;;;5049544;28;20100;-68
2022/08/13 00:30:46;;;;;;;3.08;1.90;;;;;;;;;;5043454;28;20037;-68
2022/08/13 00:33:15;;;;;;;3.42;1.90;;;;;;;;;;5023587;28;20037;-68
2022/08/13 00:35:42;;;;;;;1.73;1.63;;;;;;;;;;5041095;28;20048;-68
2022/08/13 00:38:13;;;;;;;3.00;1.65;;;;;;;;;;5029190;28;20503;-68
2022/08/13 00:40:50;;;;;;;3.33;1.60;;;;;;;;;;5029141;28;20044;-68
2022/08/13 00:43:15;;;;;;;3.83;1.55;;;;;;;;;;5030545;28;20668;-68
2022/08/13 00:45:41;;;;;;;4.72;2.25;;;;;;;;;;5048993;28;20115;-68
2022/08/13 00:50:52;;;;;;;4.65;2.10;;;;;;;;;;5048687;28;20040;-68
2022/08/13 00:53:19;;;;;;;3.50;2.10;;;;;;;;;;5040224;28;20040;-68
2022/08/13 00:55:48;;;;;;;5.05;1.80;;;;;;;;;;5039465;28;20043;-68
2022/08/13 00:58:17;;;;;;;3.22;1.83;;;;;;;;;;5019017;28;20031;-68
2022/08/13 01:00:47;;;;;;;2.17;1.70;;;;;;;;;;5028479;28;20348;-69
2022/08/13 01:03:14;;;;;;;3.63;1.90;;;;;;;;;;5031418;28;20063;-68
2022/08/13 01:05:43;;;;;;;1.73;1.63;;;;;;;;;;5040010;28;20036;-68
2022/08/13 01:08:10;;;;;;;2.78;2.10;;;;;;;;;;5033468;28;20052;-68
2022/08/13 01:10:37;;;;;;;2.30;1.75;;;;;;;;;;5027653;28;20434;-68
2022/08/13 01:13:03;;;;;;;2.63;1.90;;;;;;;;;;5029849;28;20073;-68
2022/08/13 01:15:29;;;;;;;2.45;1.85;;;;;;;;;;5034636;28;20090;-68
2022/08/13 01:17:54;;;;;;;2.17;1.98;;;;;;;;;;5039981;28;20786;-68
2022/08/13 01:20:21;;;;;;;2.33;1.90;;;;;;;;;;5028337;28;20040;-68
2022/08/13 01:22:52;;;;;;;2.40;1.90;;;;;;;;;;5033020;28;20150;-68
2022/08/13 01:25:23;;;;;;;2.80;1.85;;;;;;;;;;5048125;28;20605;-68
2022/08/13 01:27:49;;;;;;;3.20;1.88;;;;;;;;;;5048370;28;20036;-69
2022/08/13 01:30:17;;;;;;;1.80;1.70;;;;;;;;;;5047835;28;20028;-69
2022/08/13 01:32:44;;;;;;;2.00;1.80;;;;;;;;;;5031230;28;20045;-69
2022/08/13 01:35:10;;;;;;;2.50;1.60;;;;;;;;;;5039805;28;20028;-69
2022/08/13 01:37:37;;;;;;;2.72;1.75;;;;;;;;;;5048087;28;20120;-70
2022/08/13 01:40:05;;;;;;;1.77;1.40;;;;;;;;;;5047848;28;20048;-69
2022/08/13 01:42:37;;;;;;;2.25;1.60;;;;;;;;;;5035985;28;20032;-69
2022/08/13 01:45:04;;;;;;;1.83;1.60;;;;;;;;;;5044023;28;20538;-69
2022/08/13 01:50:29;;;;;;;5.75;1.75;;;;;;;;;;5028142;28;20068;-69
2022/08/13 01:53:01;;;;;;;1.83;1.70;;;;;;;;;;5022899;28;20121;-70
2022/08/13 01:55:52;;;;;;;4.28;1.70;;;;;;;;;;5047703;28;20052;-69
2022/08/13 01:58:29;;;;;;;2.97;1.83;;;;;;;;;;5024009;28;20033;-69
2022/08/13 02:00:59;;;;;;;1.90;1.60;;;;;;;;;;5025014;28;20318;-69
2022/08/13 02:03:25;;;;;;;1.92;1.70;;;;;;;;;;5038672;28;20394;-69
2022/08/13 02:05:51;;;;;;;2.65;2.10;;;;;;;;;;5033762;28;20470;-69
2022/08/13 02:08:22;;;;;;;3.38;2.13;;;;;;;;;;5028008;28;20030;-69
2022/08/13 02:10:51;;;;;;;3.90;2.25;;;;;;;;;;5027768;28;20108;-69
2022/08/13 02:13:20;;;;;;;2.70;1.80;;;;;;;;;;5035346;28;20476;-69
2022/08/13 02:15:47;;;;;;;2.45;2.00;;;;;;;;;;5044271;28;20033;-69
2022/08/13 02:18:17;;;;;;;3.42;2.20;;;;;;;;;;5031064;28;20510;-69
2022/08/13 02:20:44;;;;;;;2.35;2.10;;;;;;;;;;5027474;28;20025;-69
2022/08/13 02:23:10;;;;;;;4.78;1.95;;;;;;;;;;5034907;28;20373;-69
2022/08/13 02:25:36;;;;;;;3.22;1.88;;;;;;;;;;5042979;28;20020;-69
2022/08/13 02:28:02;;;;;;;1.98;1.70;;;;;;;;;;5047705;28;20482;-69
2022/08/13 02:30:29;;;;;;;2.70;2.00;;;;;;;;;;5027065;28;20100;-69
2022/08/13 02:33:00;;;;;;;2.20;2.00;;;;;;;;;;5034197;28;20033;-69
2022/08/13 02:35:27;;;;;;;3.58;1.88;;;;;;;;;;5041271;28;20039;-68
2022/08/13 02:37:53;;;;;;;3.00;1.95;;;;;;;;;;5047577;28;20036;-69
2022/08/13 02:43:02;;;;;;;2.78;2.08;;;;;;;;;;5035705;28;20047;-70
2022/08/13 02:45:28;;;;;;;2.60;2.20;;;;;;;;;;5047469;28;20020;-70
2022/08/13 02:47:54;;;;;;;2.28;2.08;;;;;;;;;;5047701;28;20430;-69
2022/08/13 02:50:21;;;;;;;2.00;1.80;;;;;;;;;;5047346;28;20108;-69
2022/08/13 02:52:51;;;;;;;2.30;1.98;;;;;;;;;;5031286;28;20036;-69
2022/08/13 02:55:22;;;;;;;2.17;1.98;;;;;;;;;;5043023;28;20446;-69
2022/08/13 02:57:48;;;;;;;2.78;2.00;;;;;;;;;;5029755;28;20021;-69
2022/08/13 03:00:15;;;;;;;3.50;2.15;;;;;;;;;;5030159;28;20467;-69
2022/08/13 03:02:44;;;;;;;2.00;1.70;;;;;;;;;;5028894;28;20502;-69
2022/08/13 03:05:11;;;;;;;3.63;2.03;;;;;;;;;;5047338;28;20533;-69
2022/08/13 03:07:41;;;;;;;4.40;2.33;;;;;;;;;;5029703;28;20040;-69
2022/08/13 03:10:13;;;;;;;3.28;2.17;;;;;;;;;;5029365;28;20053;-69
2022/08/13 03:12:41;;;;;;;2.53;2.08;;;;;;;;;;5036021;28;20394;-69
2022/08/13 03:15:09;;;;;;;1.95;1.70;;;;;;;;;;5030430;28;20105;-70
2022/08/13 03:17:36;;;;;;;2.67;2.10;;;;;;;;;;5029628;28;20025;-69
2022/08/13 03:20:03;;;;;;;3.15;2.17;;;;;;;;;;5029303;28;20495;-69
2022/08/13 03:22:28;;;;;;;2.42;2.05;;;;;;;;;;5033334;28;20028;-69
2022/08/13 03:24:54;;;;;;;2.60;2.10;;;;;;;;;;5033596;28;20036;-69
2022/08/13 03:27:20;;;;;;;3.58;2.10;;;;;;;;;;5030492;28;20060;-69
2022/08/13 03:29:49;;;;;;;2.30;1.75;;;;;;;;;;5020562;28;20057;-68
2022/08/13 03:32:14;;;;;;;3.03;1.77;;;;;;;;;;5041102;28;20032;-69
2022/08/13 03:34:40;;;;;;;2.08;1.88;;;;;;;;;;5032929;28;20088;-69
2022/08/13 03:37:05;;;;;;;2.10;1.90;;;;;;;;;;5028456;28;20072;-69
2022/08/13 03:39:32;;;;;;;3.38;2.00;;;;;;;;;;5024858;28;20035;-69
2022/08/13 03:41:59;;;;;;;2.25;2.10;;;;;;;;;;5045547;28;20099;-68
2022/08/13 03:44:24;;;;;;;3.50;1.92;;;;;;;;;;5028514;28;20418;-69
2022/08/13 03:46:49;;;;;;;6.70;2.33;;;;;;;;;;5028263;28;20043;-69
2022/08/13 03:49:15;;;;;;;3.65;2.08;;;;;;;;;;5026868;28;20120;-70
2022/08/13 03:51:41;;;;;;;4.30;2.30;;;;;;;;;;5044654;28;20020;-69
2022/08/13 03:54:06;;;;;;;2.22;2.03;;;;;;;;;;5028084;28;20622;-69
2022/08/13 03:56:31;;;;;;;2.60;2.30;;;;;;;;;;5028837;28;20105;-70
2022/08/13 03:58:57;;;;;;;3.88;1.90;;;;;;;;;;5028873;28;20043;-70
2022/08/13 04:01:22;;;;;;;5.13;1.95;;;;;;;;;;5036861;28;20021;-69
2022/08/13 04:03:47;;;;;;;3.17;1.95;;;;;;;;;;5040241;28;20075;-68
2022/08/13 04:06:16;;;;;;;3.08;1.90;;;;;;;;;;4993377;28;1025332;-69
2022/08/13 04:08:43;;;;;;;3.75;2.10;;;;;;;;;;5028523;28;20112;-69
2022/08/13 04:11:11;;;;;;;3.60;1.92;;;;;;;;;;5033698;28;20053;-69
2022/08/13 04:13:39;;;;;;;4.93;2.13;;;;;;;;;;5033348;28;20498;-69
2022/08/13 04:16:07;;;;;;;6.47;2.15;;;;;;;;;;5029609;28;20048;-69
2022/08/13 04:18:35;;;;;;;2.58;2.00;;;;;;;;;;5030125;28;20490;-69
2022/08/13 04:21:03;;;;;;;3.05;2.00;;;;;;;;;;5037155;28;20044;-69
2022/08/13 04:23:28;;;;;;;2.10;1.90;;;;;;;;;;5043664;28;20083;-69
2022/08/13 04:25:55;;;;;;;3.28;2.28;;;;;;;;;;5034626;28;20068;-69
2022/08/13 04:28:21;;;;;;;2.00;1.80;;;;;;;;;;5029516;28;20036;-69
2022/08/13 04:30:46;;;;;;;3.22;2.05;;;;;;;;;;5031506;28;20029;-69
2022/08/13 04:33:14;;;;;;;4.80;2.00;;;;;;;;;;5038825;28;20037;-69
2022/08/13 04:35:40;;;;;;;3.60;2.15;;;;;;;;;;5033361;28;20057;-69
2022/08/13 04:38:06;;;;;;;2.58;1.83;;;;;;;;;;5040961;28;20037;-69
2022/08/13 04:40:36;;;;;;;4.40;1.92;;;;;;;;;;5030993;28;20021;-69
2022/08/13 04:43:03;;;;;;;2.30;2.10;;;;;;;;;;5029167;28;20515;-69
2022/08/13 04:45:29;;;;;;;3.08;2.03;;;;;;;;;;5029203;28;20467;-69
2022/08/13 04:47:59;;;;;;;2.42;2.00;;;;;;;;;;5035508;28;20033;-69
2022/08/13 04:50:26;;;;;;;3.10;1.90;;;;;;;;;;5029506;28;20043;-69
2022/08/13 04:52:52;;;;;;;2.67;2.00;;;;;;;;;;5039997;28;20033;-69
2022/08/13 04:55:18;;;;;;;2.78;1.90;;;;;;;;;;5028959;28;20107;-69
2022/08/13 04:57:44;;;;;;;3.00;2.03;;;;;;;;;;5032699;28;20067;-69
2022/08/13 05:00:10;;;;;;;3.13;2.00;;;;;;;;;;5048307;28;20329;-69
2022/08/13 05:02:38;;;;;;;3.25;2.10;;;;;;;;;;5034318;28;20502;-69
2022/08/13 05:05:03;;;;;;;2.55;2.20;;;;;;;;;;5028811;28;20033;-69
2022/08/13 05:07:29;;;;;;;3.72;2.30;;;;;;;;;;5034482;28;20512;-69
2022/08/13 05:09:54;;;;;;;3.00;1.92;;;;;;;;;;5032382;28;20044;-69
2022/08/13 05:12:20;;;;;;;4.50;2.00;;;;;;;;;;5028862;28;20021;-69
2022/08/13 05:14:46;;;;;;;3.33;1.83;;;;;;;;;;5021100;28;20040;-69
2022/08/13 05:17:11;;;;;;;2.83;2.10;;;;;;;;;;5018665;28;20036;-69
2022/08/13 05:19:36;;;;;;;3.83;2.20;;;;;;;;;;5024374;28;20112;-69
2022/08/13 05:22:02;;;;;;;4.82;2.10;;;;;;;;;;5036753;28;20080;-69
2022/08/13 05:24:27;;;;;;;3.38;2.33;;;;;;;;;;5038821;28;20021;-69
2022/08/13 05:26:53;;;;;;;5.38;2.33;;;;;;;;;;5027226;28;20025;-69
2022/08/13 05:29:19;;;;;;;5.45;2.20;;;;;;;;;;5036152;28;20025;-69
2022/08/13 05:31:45;;;;;;;2.88;1.90;;;;;;;;;;5044649;28;20021;-69
2022/08/13 05:34:10;;;;;;;4.43;2.08;;;;;;;;;;5020410;28;20480;-68
2022/08/13 05:36:39;;;;;;;4.57;2.15;;;;;;;;;;5033199;28;20041;-69
2022/08/13 05:39:05;;;;;;;4.47;2.10;;;;;;;;;;5028618;28;20017;-69
2022/08/13 05:41:30;;;;;;;3.42;2.05;;;;;;;;;;5018722;28;20029;-69
2022/08/13 05:43:55;;;;;;;3.10;2.25;;;;;;;;;;5033738;28;20566;-68
2022/08/13 05:46:24;;;;;;;3.72;2.10;;;;;;;;;;5037979;28;20037;-69
2022/08/13 05:48:58;;;;;;;3.63;2.08;;;;;;;;;;5019001;28;20034;-69
2022/08/13 05:51:29;;;;;;;4.88;2.40;;;;;;;;;;5038914;28;20033;-68
2022/08/13 05:53:59;;;;;;;3.13;2.00;;;;;;;;;;5027462;28;20021;-68
2022/08/13 05:56:27;;;;;;;2.97;2.30;;;;;;;;;;5019891;28;20027;-69
2022/08/13 05:58:52;;;;;;;4.18;2.13;;;;;;;;;;5025188;28;20380;-69
2022/08/13 06:04:07;;;;;;;3.78;1.80;;;;;;;;;;5018947;28;20119;-69
2022/08/13 06:06:33;;;;;;;4.50;1.88;;;;;;;;;;5018430;28;20033;-69
2022/08/13 06:08:59;;;;;;;1.90;1.70;;;;;;;;;;5026699;28;20080;-68
2022/08/13 06:11:25;;;;;;;5.95;2.00;;;;;;;;;;5030808;28;20025;-69
2022/08/13 06:13:51;;;;;;;1.77;1.67;;;;;;;;;;5047551;28;20055;-69
2022/08/13 06:16:18;;;;;;;2.00;1.80;;;;;;;;;;5038792;28;20146;-69
2022/08/13 06:18:46;;;;;;;2.83;2.00;;;;;;;;;;5024900;28;20106;-69
2022/08/13 06:21:13;;;;;;;3.95;2.08;;;;;;;;;;5027629;28;20086;-69
2022/08/13 06:23:40;;;;;;;2.20;2.00;;;;;;;;;;5013656;28;20431;-69
2022/08/13 06:26:07;;;;;;;4.18;1.85;;;;;;;;;;5026875;28;20069;-69
2022/08/13 06:28:34;;;;;;;4.05;1.80;;;;;;;;;;5023602;28;20029;-69
2022/08/13 06:31:06;;;;;;;4.20;1.77;;;;;;;;;;5015856;28;20657;-69
2022/08/13 06:33:34;;;;;;;4.50;1.70;;;;;;;;;;5037124;28;20262;-69
2022/08/13 06:36:20;;;;;;;2.90;1.85;;;;;;;;;;5050793;28;20573;-69
2022/08/13 06:38:48;;;;;;;2.78;1.70;;;;;;;;;;5046233;28;20426;-69
2022/08/13 06:41:16;;;;;;;3.53;1.90;;;;;;;;;;5028320;28;20678;-69
2022/08/13 06:43:44;;;;;;;3.60;1.60;;;;;;;;;;5035062;28;20076;-69
2022/08/13 06:46:11;;;;;;;2.20;1.70;;;;;;;;;;5030229;28;20254;-69
2022/08/13 06:48:39;;;;;;;4.85;1.80;;;;;;;;;;5021922;28;20033;-69
2022/08/13 06:51:07;;;;;;;2.40;1.80;;;;;;;;;;5028350;28;20033;-69
2022/08/13 06:53:35;;;;;;;2.05;1.40;;;;;;;;;;5029626;28;20534;-69
2022/08/13 06:56:03;;;;;;;3.22;1.75;;;;;;;;;;5040163;28;20113;-69
2022/08/13 06:58:30;;;;;;;4.22;1.70;;;;;;;;;;5035509;28;20025;-69
2022/08/13 07:00:56;;;;;;;2.42;1.40;;;;;;;;;;5032186;28;20037;-69
2022/08/13 07:03:32;;;;;;;3.40;2.08;;;;;;;;;;5030968;28;20025;-69
2022/08/13 07:05:58;;;;;;;3.25;1.50;;;;;;;;;;5028351;28;20033;-69
2022/08/13 07:08:26;;;;;;;3.97;1.83;;;;;;;;;;5044119;28;20021;-69
2022/08/13 07:13:42;;;;;;;2.55;1.60;;;;;;;;;;5027747;28;20048;-69
2022/08/13 07:16:08;;;;;;;3.70;1.80;;;;;;;;;;5030395;28;20495;-69
2022/08/13 07:18:35;;;;;;;1.58;1.48;;;;;;;;;;5039115;28;20530;-69
2022/08/13 07:21:04;;;;;;;3.00;1.45;;;;;;;;;;5025679;28;20029;-70
2022/08/13 07:23:29;;;;;;;3.10;1.60;;;;;;;;;;5025050;28;20028;-69
2022/08/13 07:25:57;;;;;;;2.85;1.42;;;;;;;;;;5024663;28;20494;-69
2022/08/13 07:28:23;;;;;;;1.58;1.48;;;;;;;;;;5030631;28;20178;-69
2022/08/13 07:30:51;;;;;;;1.40;1.25;;;;;;;;;;5029139;28;20075;-70
2022/08/13 07:33:16;;;;;;;3.38;1.67;;;;;;;;;;5039438;28;20478;-69
2022/08/13 07:35:42;;;;;;;4.00;1.75;;;;;;;;;;5034539;28;20071;-70
2022/08/13 07:38:07;;;;;;;1.70;1.60;;;;;;;;;;5028880;28;20503;-70
2022/08/13 07:40:34;;;;;;;3.05;1.80;;;;;;;;;;5030566;28;20017;-71
2022/08/13 07:43:04;;;;;;;1.50;1.40;;;;;;;;;;5022835;28;20483;-71
2022/08/13 07:45:29;;;;;;;3.22;1.50;;;;;;;;;;5003519;28;20824;-70
2022/08/13 07:47:57;;;;;;;2.10;1.67;;;;;;;;;;5027182;28;20025;-70
2022/08/13 07:50:23;;;;;;;1.60;1.48;;;;;;;;;;5026381;28;20383;-72
2022/08/13 07:52:57;;;;;;;1.90;1.50;;;;;;;;;;5030219;28;20064;-70
2022/08/13 07:55:25;;;;;;;2.80;1.38;;;;;;;;;;5029943;28;20025;-70
2022/08/13 07:57:52;;;;;;;3.35;1.42;;;;;;;;;;5029918;28;20029;-71
2022/08/13 08:00:29;;;;;;;3.03;1.52;;;;;;;;;;5022774;28;20090;-70
2022/08/13 08:02:56;;;;;;;4.38;1.40;;;;;;;;;;5043859;28;20497;-70
2022/08/13 08:05:24;;;;;;;2.80;1.27;;;;;;;;;;5035452;28;20038;-71
2022/08/13 08:07:51;;;;;;;4.05;1.58;;;;;;;;;;5038579;28;20156;-71
2022/08/13 08:10:18;;;;;;;2.20;1.40;;;;;;;;;;5024810;28;20103;-70
2022/08/13 08:12:44;;;;;;;4.22;1.92;;;;;;;;;;5029924;28;20025;-70
2022/08/13 08:15:11;;;;;;;1.38;1.25;;;;;;;;;;5029751;28;20032;-73
2022/08/13 08:17:36;;;;;;;2.63;1.27;;;;;;;;;;5031031;28;20100;-71
2022/08/13 08:20:03;;;;;;;1.15;1.05;;;;;;;;;;5019694;28;20039;-73
2022/08/13 08:22:30;;;;;;;3.58;2.55;;;;;;;;;;5016801;28;20037;-71
2022/08/13 08:24:56;;;;;;;3.13;1.10;;;;;;;;;;5022778;28;20103;-71
2022/08/13 08:27:23;;;;;;;1.98;1.40;;;;;;;;;;5027229;28;20507;-70
2022/08/13 08:29:49;;;;;;;2.17;1.17;;;;;;;;;;4999724;28;20033;-70
2022/08/13 08:32:16;;;;;;;3.28;1.30;;;;;;;;;;5027468;28;20143;-71
2022/08/13 08:34:45;;;;;;;2.35;1.10;;;;;;;;;;5029906;28;20025;-71
2022/08/13 08:42:35;;;;;;;1.70;1.00;;;;;;;;;;5031191;28;20460;-69
2022/08/13 08:42:54;;;;;;;5.07;1.35;;;;;;;;;;5032741;28;20082;-69
2022/08/13 08:45:20;;;;;;;8.80;2.20;;;;;;;;;;5027186;28;20037;-71
2022/08/13 08:47:48;;;;;;;10.05;2.33;;;;;;;;;;5028673;28;20064;-69
2022/08/13 08:50:17;;;;;;;2.85;1.00;;;;;;;;;;5028819;28;20492;-70
2022/08/13 08:55:36;;;;;;;5.68;1.42;;;;;;;;;;5029045;28;20328;-73
2022/08/13 08:58:07;;;;;;;1.02;0.93;;;;;;;;;;5029359;28;20025;-69
2022/08/13 09:00:34;;;;;;;1.30;0.77;;;;;;;;;;5028651;28;20104;-72
2022/08/13 09:03:00;;;;;;;1.05;0.95;;;;;;;;;;5028919;28;20392;-72
2022/08/13 09:05:26;;;;;;;2.55;1.30;;;;;;;;;;5022249;28;20052;-71
2022/08/13 09:07:52;;;;;;;2.35;1.10;;;;;;;;;;5026633;28;20476;-73
2022/08/13 09:10:21;;;;;;;2.38;0.93;;;;;;;;;;5025775;28;20511;-73
2022/08/13 09:12:50;;;;;;;2.63;1.27;;;;;;;;;;5025537;28;20071;-72
2022/08/13 09:15:17;;;;;;;1.13;1.02;;;;;;;;;;5026272;28;20497;-73
2022/08/13 09:17:43;;;;;;;1.15;1.05;;;;;;;;;;5025575;28;20025;-73
2022/08/13 09:20:15;;;;;;;2.55;1.63;;;;;;;;;;5025651;28;20029;-72
2022/08/13 09:22:41;;;;;;;1.27;0.98;;;;;;;;;;5026076;28;20029;-73
2022/08/13 09:25:08;;;;;;;3.40;1.33;;;;;;;;;;5025302;28;20104;-72
2022/08/13 09:27:35;;;;;;;3.58;1.38;;;;;;;;;;5025223;28;20026;-73
2022/08/13 09:30:04;;;;;;;2.45;0.88;;;;;;;;;;5025699;28;20052;-70
2022/08/13 09:32:32;;;;;;;4.20;1.50;;;;;;;;;;5025136;28;20074;-70
2022/08/13 09:34:58;;;;;;;2.55;0.95;;;;;;;;;;5025379;28;20803;-73
2022/08/13 09:37:24;;;;;;;3.30;1.02;;;;;;;;;;5026013;28;20510;-73
2022/08/13 09:39:56;;;;;;;0.82;0.82;;;;;;;;;;5024549;28;20026;-72
2022/08/13 09:42:30;;;;;;;0.82;0.82;;;;;;;;;;5025002;28;20040;-73
2022/08/13 09:44:58;;;;;;;1.48;0.85;;;;;;;;;;5018779;28;20504;-76
2022/08/13 09:47:25;;;;;;;2.30;1.10;;;;;;;;;;5026061;28;20147;-75
2022/08/13 09:49:50;;;;;;;3.70;1.88;;;;;;;;;;5027019;28;20013;-75
2022/08/13 09:52:16;;;;;;;1.08;0.90;;;;;;;;;;5027503;28;20116;-74
2022/08/13 09:54:42;;;;;;;1.83;0.82;;;;;;;;;;5019622;28;20029;-74
2022/08/13 09:57:08;;;;;;;3.55;1.10;;;;;;;;;;5025116;28;20464;-74
2022/08/13 09:59:34;;;;;;;2.13;0.85;;;;;;;;;;5021906;28;20078;-74
2022/08/13 10:02:05;;;;;;;1.88;0.90;;;;;;;;;;5022072;28;20030;-75
2022/08/13 10:04:32;;;;;;;4.80;0.95;;;;;;;;;;5025653;28;20035;-74
2022/08/13 10:06:58;;;;;;;1.13;0.98;;;;;;;;;;5028788;28;20078;-74
2022/08/13 10:09:26;;;;;;;1.65;1.00;;;;;;;;;;5031416;28;20022;-75
2022/08/13 10:11:54;;;;;;;1.33;0.90;;;;;;;;;;5032141;28;20419;-73
2022/08/13 10:14:20;;;;;;;2.63;1.00;;;;;;;;;;5032152;28;20264;-72
2022/08/13 10:16:46;;;;;;;3.75;1.10;;;;;;;;;;5028441;28;20018;-73
2022/08/13 10:19:11;;;;;;;2.33;1.17;;;;;;;;;;5031458;28;20048;-74
2022/08/13 10:21:37;;;;;;;3.25;0.90;;;;;;;;;;5031872;28;20052;-73
2022/08/13 10:24:04;;;;;;;1.13;0.90;;;;;;;;;;5031764;28;20502;-75
2022/08/13 10:26:29;;;;;;;3.03;1.42;;;;;;;;;;5031725;28;20512;-74
2022/08/13 10:28:54;;;;;;;1.92;1.33;;;;;;;;;;5032014;28;20060;-75
2022/08/13 10:31:20;;;;;;;1.42;1.00;;;;;;;;;;5031799;28;20402;-73
2022/08/13 10:33:47;;;;;;;0.90;0.80;;;;;;;;;;5031588;28;20100;-75
2022/08/13 10:36:14;;;;;;;8.30;1.10;;;;;;;;;;5031595;28;20025;-73
2022/08/13 10:38:40;;;;;;;4.85;1.85;;;;;;;;;;5031860;28;20057;-76
2022/08/13 10:41:08;;;;;;;4.25;1.77;;;;;;;;;;5031557;28;20103;-76
2022/08/13 10:43:38;;;;;;;2.72;1.30;;;;;;;;;;5013643;28;20030;-75
2022/08/13 10:46:04;;;;;;;0.90;0.82;;;;;;;;;;5031457;28;20507;-77
2022/08/13 10:48:29;;;;;;;1.23;0.88;;;;;;;;;;5031289;28;20120;-73
2022/08/13 10:50:55;;;;;;;1.43;0.90;;;;;;;;;;5030288;28;20163;-74
2022/08/13 10:56:06;;;;;;;1.42;1.10;;;;;;;;;;5031294;28;20036;-72
2022/08/13 10:58:32;;;;;;;0.98;0.88;;;;;;;;;;5031455;28;20041;-74
2022/08/13 11:01:02;;;;;;;1.88;1.10;;;;;;;;;;5031459;28;20037;-72
2022/08/13 11:03:30;;;;;;;4.10;1.02;;;;;;;;;;5030923;28;20033;-74
2022/08/13 11:05:55;;;;;;;1.00;0.95;;;;;;;;;;5031414;28;20044;-75
2022/08/13 11:08:21;;;;;;;2.20;0.90;;;;;;;;;;5030461;28;20041;-76
2022/08/13 11:10:46;;;;;;;1.67;1.00;;;;;;;;;;5036076;28;20106;-74
2022/08/13 11:13:12;;;;;;;0.88;0.88;;;;;;;;;;5048488;28;20033;-73
2022/08/13 11:15:37;;;;;;;1.85;0.70;;;;;;;;;;5047396;28;20044;-74
2022/08/13 11:18:05;;;;;;;1.40;1.00;;;;;;;;;;5024048;28;20048;-74
2022/08/13 11:20:40;;;;;;;1.73;0.80;;;;;;;;;;5007949;28;20030;-71
2022/08/13 11:23:06;;;;;;;1.20;0.88;;;;;;;;;;5009114;28;20033;-74
2022/08/13 11:25:32;;;;;;;5.22;1.10;;;;;;;;;;5010366;28;20040;-74
2022/08/13 11:27:57;;;;;;;1.92;0.90;;;;;;;;;;5011166;28;20399;-72
2022/08/13 11:30:22;;;;;;;2.00;0.90;;;;;;;;;;5010449;28;20514;-70
2022/08/13 11:32:48;;;;;;;0.93;0.90;;;;;;;;;;5011118;28;20255;-73
2022/08/13 11:35:13;;;;;;;0.97;0.90;;;;;;;;;;5010761;28;20433;-74
2022/08/13 11:37:39;;;;;;;3.25;1.13;;;;;;;;;;5011210;28;20263;-72
2022/08/13 11:40:05;;;;;;;2.55;1.10;;;;;;;;;;5010235;28;20022;-72
2022/08/13 11:42:31;;;;;;;1.30;1.20;;;;;;;;;;5011006;28;20104;-73
2022/08/13 11:44:56;;;;;;;1.95;1.00;;;;;;;;;;5010821;28;20113;-73
2022/08/13 11:47:22;;;;;;;1.08;0.80;;;;;;;;;;5010507;28;20034;-74
2022/08/13 11:49:47;;;;;;;3.72;1.20;;;;;;;;;;5010473;28;20053;-73
2022/08/13 11:52:13;;;;;;;3.30;1.50;;;;;;;;;;5010604;28;20453;-73
2022/08/13 11:54:38;;;;;;;1.95;0.88;;;;;;;;;;5010610;28;20267;-73
2022/08/13 11:57:06;;;;;;;1.20;1.00;;;;;;;;;;5010316;28;20520;-75
2022/08/13 11:59:31;;;;;;;0.80;0.80;;;;;;;;;;5009971;28;20282;-73
2022/08/13 12:01:57;;;;;;;1.30;1.10;;;;;;;;;;5010277;28;20083;-73
2022/08/13 12:04:22;;;;;;;2.47;1.10;;;;;;;;;;5010275;28;20064;-75
2022/08/13 12:06:47;;;;;;;3.40;1.40;;;;;;;;;;5010257;28;20263;-74
2022/08/13 12:09:13;;;;;;;1.30;0.80;;;;;;;;;;5010213;28;20032;-73
2022/08/13 12:11:38;;;;;;;1.17;0.97;;;;;;;;;;5009834;28;20029;-71
2022/08/13 12:14:03;;;;;;;2.47;1.10;;;;;;;;;;5010052;28;20255;-74
2022/08/13 12:16:29;;;;;;;1.60;1.20;;;;;;;;;;5009848;28;20471;-75
2022/08/13 12:18:55;;;;;;;1.00;1.00;;;;;;;;;;5009865;28;20030;-74
2022/08/13 12:21:20;;;;;;;2.00;1.00;;;;;;;;;;5010076;28;20030;-73
2022/08/13 12:23:45;;;;;;;1.80;1.10;;;;;;;;;;5009795;28;20034;-71
2022/08/13 12:26:11;;;;;;;1.00;0.97;;;;;;;;;;5010030;28;20472;-73
2022/08/13 12:28:36;;;;;;;3.72;1.65;;;;;;;;;;5009745;28;20310;-72
2022/08/13 12:31:07;;;;;;;3.38;1.25;;;;;;;;;;5008868;28;20034;-71
2022/08/13 12:33:34;;;;;;;1.17;1.08;;;;;;;;;;5010163;28;20029;-70
2022/08/13 12:36:00;;;;;;;1.10;1.00;;;;;;;;;;5009445;28;20113;-72
2022/08/13 12:38:26;;;;;;;2.22;1.30;;;;;;;;;;5009737;28;20022;-71
2022/08/13 12:40:51;;;;;;;0.90;0.90;;;;;;;;;;5009133;28;20113;-69
2022/08/13 12:43:17;;;;;;;2.55;1.00;;;;;;;;;;5009428;28;20113;-72
2022/08/13 12:45:43;;;;;;;3.78;1.13;;;;;;;;;;4991797;28;20077;-71
2022/08/13 12:48:11;;;;;;;2.50;1.02;;;;;;;;;;5009665;28;20030;-72
2022/08/13 12:50:37;;;;;;;2.05;1.70;;;;;;;;;;5009074;28;20480;-71
2022/08/13 12:53:05;;;;;;;1.00;0.90;;;;;;;;;;5009647;28;20539;-72
2022/08/13 12:55:31;;;;;;;1.55;0.90;;;;;;;;;;5009216;28;20101;-73
2022/08/13 12:57:58;;;;;;;1.30;1.02;;;;;;;;;;5009321;28;20508;-72
2022/08/13 13:00:24;;;;;;;1.20;1.10;;;;;;;;;;5008883;28;20087;-73
2022/08/13 13:02:49;;;;;;;1.77;0.90;;;;;;;;;;5009244;28;20030;-72
2022/08/13 13:05:15;;;;;;;2.50;1.40;;;;;;;;;;5009114;28;20022;-74
2022/08/13 13:07:42;;;;;;;2.83;2.00;;;;;;;;;;5009034;28;20050;-72
2022/08/13 13:10:09;;;;;;;2.88;1.77;;;;;;;;;;5008817;28;20591;-72
2022/08/13 13:12:34;;;;;;;1.80;1.50;;;;;;;;;;5008898;28;20087;-73
2022/08/13 13:14:59;;;;;;;1.20;1.08;;;;;;;;;;5008868;28;20113;-72
2022/08/13 13:17:25;;;;;;;2.57;1.40;;;;;;;;;;5008779;28;20065;-73
2022/08/13 13:19:53;;;;;;;1.67;1.10;;;;;;;;;;5008808;28;20279;-71
2022/08/13 13:22:18;;;;;;;1.40;1.00;;;;;;;;;;5008793;28;20041;-69
2022/08/13 13:24:44;;;;;;;3.30;1.25;;;;;;;;;;5008731;28;20034;-72
2022/08/13 13:27:10;;;;;;;2.37;1.27;;;;;;;;;;5008711;28;20034;-75
2022/08/13 13:29:37;;;;;;;2.53;1.25;;;;;;;;;;5008580;28;20263;-71
2022/08/13 13:32:14;;;;;;;2.22;1.70;;;;;;;;;;5008819;28;20105;-74
2022/08/13 13:34:43;;;;;;;1.77;1.10;;;;;;;;;;5008691;28;20558;-73
2022/08/13 13:37:10;;;;;;;1.98;1.13;;;;;;;;;;5008694;28;20033;-70
2022/08/13 13:39:35;;;;;;;2.55;1.50;;;;;;;;;;5008349;28;20025;-70
2022/08/13 13:42:01;;;;;;;1.20;1.10;;;;;;;;;;5007768;28;20291;-73
2022/08/13 13:44:26;;;;;;;3.17;1.17;;;;;;;;;;5008878;28;20022;-71
2022/08/13 13:46:51;;;;;;;1.63;1.20;;;;;;;;;;5008741;28;20137;-74
2022/08/13 13:49:17;;;;;;;2.43;0.90;;;;;;;;;;5008600;28;20057;-72
2022/08/13 13:51:42;;;;;;;1.35;1.00;;;;;;;;;;5008360;28;20286;-73
2022/08/13 13:54:07;;;;;;;1.58;1.10;;;;;;;;;;5008490;28;20029;-74
2022/08/13 13:56:33;;;;;;;1.38;1.27;;;;;;;;;;5008405;28;20053;-72
2022/08/13 13:58:58;;;;;;;2.35;1.75;;;;;;;;;;5027794;28;20021;-73
2022/08/13 14:01:24;;;;;;;1.20;1.10;;;;;;;;;;5028048;28;20464;-71
2022/08/13 14:03:49;;;;;;;1.10;1.00;;;;;;;;;;5028313;28;20033;-74
2022/08/13 14:06:20;;;;;;;1.67;1.15;;;;;;;;;;5027892;28;20439;-73
2022/08/13 14:08:48;;;;;;;1.42;1.20;;;;;;;;;;5028036;28;20052;-75
2022/08/13 14:11:14;;;;;;;1.58;1.23;;;;;;;;;;5027787;28;20026;-75
2022/08/13 14:13:40;;;;;;;1.88;1.20;;;;;;;;;;5028214;28;20096;-72
2022/08/13 14:16:05;;;;;;;1.00;1.00;;;;;;;;;;5027902;28;20109;-74
2022/08/13 14:18:31;;;;;;;4.57;1.20;;;;;;;;;;5028489;28;20168;-74
2022/08/13 14:20:57;;;;;;;1.42;1.33;;;;;;;;;;5027787;28;20088;-73
2022/08/13 14:23:25;;;;;;;1.10;1.00;;;;;;;;;;5027949;28;20034;-74
2022/08/13 14:25:51;;;;;;;2.03;1.10;;;;;;;;;;5027838;28;20017;-72
2022/08/13 14:28:18;;;;;;;3.10;1.10;;;;;;;;;;5022878;28;20542;-74
2022/08/13 14:30:46;;;;;;;1.58;1.20;;;;;;;;;;5018570;28;20460;-74
2022/08/13 14:33:12;;;;;;;1.83;1.10;;;;;;;;;;5022679;28;20037;-73
2022/08/13 14:35:38;;;;;;;1.88;1.10;;;;;;;;;;5033700;28;20024;-72
2022/08/13 14:38:04;;;;;;;2.10;1.20;;;;;;;;;;5024673;28;20040;-74
2022/08/13 14:40:29;;;;;;;1.65;1.10;;;;;;;;;;5023123;28;20017;-73
2022/08/13 14:42:57;;;;;;;1.20;1.10;;;;;;;;;;5022378;28;20430;-73
2022/08/13 14:45:41;;;;;;;3.10;1.25;;;;;;;;;;5021384;28;20017;-72
2022/08/13 14:48:12;;;;;;;3.35;1.20;;;;;;;;;;5019534;28;20030;-74
2022/08/13 14:50:41;;;;;;;2.22;1.08;;;;;;;;;;5027236;28;20017;-73
2022/08/13 14:53:08;;;;;;;1.23;1.13;;;;;;;;;;5022597;28;20034;-76
2022/08/13 14:55:34;;;;;;;2.13;1.30;;;;;;;;;;5031115;28;20088;-73
2022/08/13 14:58:01;;;;;;;2.30;1.33;;;;;;;;;;5030968;28;20549;-72
2022/08/13 15:00:28;;;;;;;2.35;1.20;;;;;;;;;;5026357;28;20041;-74
2022/08/13 15:02:56;;;;;;;1.85;1.25;;;;;;;;;;5026969;28;20112;-72
2022/08/13 15:05:23;;;;;;;1.77;1.40;;;;;;;;;;5031549;28;20033;-70